Time;durP1;ratioP1;P1;durP2;ratioP2;P2;SDS_P1;SDS_P2;PMS_P1;PMS_P2;Temp;Humidity;BMP_temperature;BMP_pressure;BME280_temperature;BME280_humidity;BME280_pressure;Samples;Min_cycle;Max_cycle;Signal;HPM_P1;HPM_P2
2022/12/25 00:00:23;;;;;;;1.50;1.40;;;22.20;58.60;;;;;;5112995;28;21035;-68
2022/12/25 00:02:52;;;;;;;2.97;1.77;;;22.20;58.50;;;;;;5109775;28;20517;-68
2022/12/25 00:05:21;;;;;;;1.40;1.30;;;22.20;58.50;;;;;;5112281;28;20780;-68
2022/12/25 00:07:49;;;;;;;2.40;1.47;;;22.20;58.50;;;;;;5096305;28;20485;-67
2022/12/25 00:10:17;;;;;;;1.43;1.33;;;22.10;58.50;;;;;;5086924;28;20545;-68
2022/12/25 00:12:45;;;;;;;1.80;1.67;;;22.10;58.50;;;;;;5085229;28;20472;-68
2022/12/25 00:15:13;;;;;;;1.57;1.40;;;22.10;58.50;;;;;;5098948;28;20465;-68
2022/12/25 00:17:41;;;;;;;1.77;1.60;;;22.10;58.50;;;;;;5090570;28;20536;-68
2022/12/25 00:20:11;;;;;;;2.00;1.23;;;22.10;58.50;;;;;;5085367;28;20547;-68
2022/12/25 00:22:39;;;;;;;1.73;1.40;;;22.10;58.50;;;;;;5085127;28;20551;-67
2022/12/25 00:25:08;;;;;;;1.60;1.50;;;22.10;58.50;;;;;;5085981;28;20543;-67
2022/12/25 00:27:37;;;;;;;3.00;1.60;;;22.10;58.50;;;;;;5090615;28;20853;-68
2022/12/25 00:30:07;;;;;;;2.40;1.40;;;22.10;58.50;;;;;;5085191;28;20870;-67
2022/12/25 00:32:36;;;;;;;1.10;1.00;;;22.10;58.50;;;;;;5092753;28;20974;-69
2022/12/25 00:35:05;;;;;;;1.63;1.53;;;22.10;58.50;;;;;;5087724;28;20787;-67
2022/12/25 00:37:34;;;;;;;1.63;1.37;;;22.10;58.40;;;;;;5090140;28;20511;-68
2022/12/25 00:40:03;;;;;;;5.90;1.80;;;22.10;58.40;;;;;;5088730;28;20486;-69
2022/12/25 00:42:31;;;;;;;1.50;1.40;;;22.10;58.40;;;;;;5089720;28;20453;-68
2022/12/25 00:45:00;;;;;;;2.20;2.10;;;22.10;58.40;;;;;;5091836;28;20433;-68
2022/12/25 00:47:29;;;;;;;1.33;1.30;;;22.20;58.40;;;;;;5081077;28;20450;-68
2022/12/25 00:49:57;;;;;;;1.40;1.30;;;22.20;58.30;;;;;;5091318;28;20779;-67
2022/12/25 00:52:25;;;;;;;1.40;1.30;;;22.20;58.30;;;;;;5086741;28;20483;-67
2022/12/25 00:54:54;;;;;;;1.40;1.30;;;22.20;58.30;;;;;;5098136;28;20537;-67
2022/12/25 00:57:23;;;;;;;1.13;0.97;;;22.20;58.20;;;;;;5077550;28;20538;-67
2022/12/25 00:59:51;;;;;;;1.23;1.13;;;22.20;58.20;;;;;;5101530;28;20444;-69
2022/12/25 01:02:25;;;;;;;1.50;1.40;;;22.20;58.10;;;;;;5108725;28;21150;-67
2022/12/25 01:04:55;;;;;;;1.50;1.40;;;22.20;58.10;;;;;;5105704;27;20986;-67
2022/12/25 01:07:26;;;;;;;3.63;3.33;;;22.20;58.10;;;;;;5108268;28;20504;-67
2022/12/25 01:12:43;;;;;;;2.43;1.30;;;22.20;58.10;;;;;;5101956;28;20556;-67
2022/12/25 01:15:12;;;;;;;1.30;1.27;;;22.20;58.10;;;;;;5108899;27;20837;-67
2022/12/25 01:17:40;;;;;;;1.60;1.50;;;22.20;58.10;;;;;;5112707;27;20510;-68
2022/12/25 01:20:09;;;;;;;1.60;1.50;;;22.20;58.00;;;;;;5118166;27;20454;-68
2022/12/25 01:22:37;;;;;;;1.30;1.20;;;22.10;58.00;;;;;;5130643;27;20458;-68
2022/12/25 01:25:08;;;;;;;1.50;1.40;;;22.10;58.00;;;;;;5122119;27;20440;-68
2022/12/25 01:27:36;;;;;;;1.47;1.10;;;22.10;57.90;;;;;;5117881;28;20447;-67
2022/12/25 01:30:05;;;;;;;1.37;1.27;;;22.10;57.90;;;;;;5127169;28;20969;-69
2022/12/25 01:32:33;;;;;;;1.83;1.10;;;22.10;58.00;;;;;;5121451;28;20529;-68
2022/12/25 01:35:02;;;;;;;1.23;1.23;;;22.10;58.00;;;;;;5106672;28;20444;-67
2022/12/25 01:37:30;;;;;;;1.10;1.10;;;22.10;58.00;;;;;;5122591;28;20443;-69
2022/12/25 01:39:58;;;;;;;1.50;1.40;;;22.10;58.00;;;;;;5120495;28;20457;-67
2022/12/25 01:42:27;;;;;;;1.13;1.13;;;22.10;58.10;;;;;;5105826;28;20456;-67
2022/12/25 01:45:37;;;;;;;2.17;1.30;;;22.10;58.10;;;;;;5113734;28;20443;-70
2022/12/25 01:48:11;;;;;;;1.57;1.47;;;22.10;58.00;;;;;;5111618;28;20451;-68
2022/12/25 01:50:44;;;;;;;1.40;1.30;;;22.10;58.00;;;;;;5122498;28;20445;-68
2022/12/25 01:53:12;;;;;;;1.10;1.00;;;22.20;57.90;;;;;;5103315;28;20528;-68
2022/12/25 01:55:43;;;;;;;1.37;1.27;;;22.20;57.90;;;;;;5113411;28;20448;-68
2022/12/25 01:58:13;;;;;;;1.37;1.33;;;22.20;57.90;;;;;;5099477;28;20447;-68
2022/12/25 02:00:41;;;;;;;1.40;1.30;;;22.20;57.90;;;;;;5106553;28;20534;-68
2022/12/25 02:03:09;;;;;;;4.80;1.40;;;22.20;57.80;;;;;;5111610;28;20569;-68
2022/12/25 02:05:38;;;;;;;1.60;1.50;;;22.20;57.90;;;;;;5111194;27;20474;-68
2022/12/25 02:08:09;;;;;;;2.23;1.43;;;22.20;57.90;;;;;;5126205;27;20561;-67
2022/12/25 02:10:38;;;;;;;2.07;1.33;;;22.10;57.80;;;;;;5115080;27;20494;-68
2022/12/25 02:13:07;;;;;;;1.20;1.20;;;22.10;57.90;;;;;;5120683;27;20803;-68
2022/12/25 02:15:43;;;;;;;1.30;1.20;;;22.10;57.90;;;;;;5124403;27;20821;-68
2022/12/25 02:18:17;;;;;;;1.20;1.20;;;22.10;57.90;;;;;;5107344;28;20483;-68
2022/12/25 02:21:17;;;;;;;1.47;1.37;;;22.10;57.90;;;;;;5104876;28;20800;-69
2022/12/25 02:24:13;;;;;;;1.13;1.10;;;22.10;57.90;;;;;;5107753;27;20447;-68
2022/12/25 02:26:58;;;;;;;1.37;1.27;;;22.10;57.90;;;;;;5104791;28;20808;-68
2022/12/25 02:29:34;;;;;;;1.33;1.23;;;22.00;58.00;;;;;;5117443;27;20542;-68
2022/12/25 02:32:07;;;;;;;1.03;1.03;;;22.00;58.00;;;;;;5117367;27;20451;-68
2022/12/25 02:34:44;;;;;;;1.37;1.27;;;22.00;58.00;;;;;;5109830;27;20463;-68
2022/12/25 02:37:17;;;;;;;1.20;1.20;;;22.00;58.00;;;;;;5121389;27;20448;-69
2022/12/25 02:39:57;;;;;;;1.23;1.13;;;22.10;58.10;;;;;;5100452;28;20495;-69
2022/12/25 03:08:02;;;;;;;1.27;1.17;;;22.10;57.80;;;;;;5119073;27;20951;-68
2022/12/25 03:13:21;;;;;;;1.13;1.13;;;22.10;57.70;;;;;;5117191;27;20509;-68
2022/12/25 03:18:37;;;;;;;1.10;1.10;;;22.10;57.70;;;;;;5112720;27;20974;-67
2022/12/25 03:26:56;;;;;;;1.10;1.07;;;22.10;57.70;;;;;;5112505;28;20460;-68
2022/12/25 03:32:28;;;;;;;3.30;1.20;;;22.10;57.80;;;;;;5115310;27;20534;-68
2022/12/25 04:36:46;;;;;;;1.10;1.10;;;22.00;57.90;;;;;;5111838;28;20440;-68
2022/12/25 04:39:14;;;;;;;1.50;1.40;;;22.00;57.90;;;;;;5111808;28;20516;-68
2022/12/25 04:41:44;;;;;;;2.17;1.43;;;22.00;57.90;;;;;;5112812;28;20480;-67
2022/12/25 04:44:12;;;;;;;2.30;1.20;;;22.10;57.80;;;;;;5112587;27;20463;-69
2022/12/25 04:46:40;;;;;;;1.07;1.07;;;22.10;57.80;;;;;;5112240;27;20544;-69
2022/12/25 04:49:08;;;;;;;1.30;1.20;;;22.10;57.70;;;;;;5111810;28;20919;-68
2022/12/25 04:51:37;;;;;;;1.10;1.00;;;22.10;57.60;;;;;;5122491;27;20436;-68
2022/12/25 04:54:05;;;;;;;1.00;1.00;;;22.10;57.60;;;;;;5122416;27;20511;-67
2022/12/25 04:56:33;;;;;;;1.10;1.10;;;22.10;57.60;;;;;;5106525;27;20444;-68
2022/12/25 04:59:10;;;;;;;1.20;1.10;;;22.10;57.60;;;;;;5116697;27;20846;-67
2022/12/25 05:01:38;;;;;;;1.60;1.50;;;22.10;57.60;;;;;;5124722;27;20435;-67
2022/12/25 05:04:06;;;;;;;1.00;1.00;;;22.10;57.50;;;;;;5115874;27;20461;-69
2022/12/25 05:06:34;;;;;;;1.37;1.27;;;22.10;57.50;;;;;;5115382;27;20580;-71
2022/12/25 05:09:02;;;;;;;1.50;1.40;;;22.10;57.50;;;;;;5111046;27;20450;-68
2022/12/25 05:11:31;;;;;;;1.40;1.30;;;22.10;57.50;;;;;;5109135;28;20539;-68
2022/12/25 05:13:59;;;;;;;1.47;1.37;;;22.10;57.50;;;;;;5109169;28;20470;-68
2022/12/25 05:16:28;;;;;;;1.30;1.20;;;22.10;57.50;;;;;;5111903;28;20432;-68
2022/12/25 05:18:57;;;;;;;1.03;1.03;;;22.10;57.50;;;;;;5111742;28;20481;-68
2022/12/25 05:21:25;;;;;;;1.40;1.30;;;22.10;57.60;;;;;;5110452;27;20534;-68
2022/12/25 05:23:54;;;;;;;1.07;1.07;;;22.10;57.60;;;;;;5123576;27;20445;-68
2022/12/25 05:26:24;;;;;;;3.80;1.60;;;22.10;57.60;;;;;;5109967;28;20449;-68
2022/12/25 05:28:52;;;;;;;1.17;1.13;;;22.10;57.60;;;;;;5118952;28;20448;-69
2022/12/25 05:31:20;;;;;;;2.60;1.20;;;22.10;57.60;;;;;;5113229;28;20469;-70
2022/12/25 05:33:51;;;;;;;1.07;1.07;;;22.10;57.70;;;;;;5100415;28;20505;-70
2022/12/25 05:36:19;;;;;;;1.50;1.40;;;22.10;57.70;;;;;;5106898;28;20448;-70
2022/12/25 05:38:48;;;;;;;1.10;1.10;;;22.10;57.70;;;;;;5107425;28;20445;-69
2022/12/25 05:41:16;;;;;;;1.40;1.20;;;22.10;57.70;;;;;;5115490;27;20459;-70
2022/12/25 05:43:44;;;;;;;1.97;1.47;;;22.20;57.70;;;;;;5114302;27;20854;-68
2022/12/25 05:46:13;;;;;;;1.00;1.00;;;22.20;57.70;;;;;;5101532;28;20462;-68
2022/12/25 05:48:41;;;;;;;2.43;1.40;;;22.20;57.70;;;;;;5112193;28;20480;-68
2022/12/25 05:51:13;;;;;;;1.33;1.23;;;22.20;57.60;;;;;;5116810;27;20446;-68
2022/12/25 05:53:43;;;;;;;0.80;0.80;;;22.20;57.60;;;;;;5112095;27;20614;-68
2022/12/25 05:56:11;;;;;;;1.27;1.20;;;22.20;57.40;;;;;;5112949;27;20449;-68
2022/12/25 05:58:40;;;;;;;1.33;1.23;;;22.30;57.40;;;;;;5117677;27;20491;-68
2022/12/25 06:01:14;;;;;;;1.10;1.00;;;22.30;57.30;;;;;;5110466;27;20479;-68
2022/12/25 06:03:42;;;;;;;1.47;1.37;;;22.30;57.20;;;;;;5121852;27;20606;-68
2022/12/25 06:06:12;;;;;;;0.90;0.90;;;22.30;57.20;;;;;;5118455;27;20462;-68
2022/12/25 06:08:41;;;;;;;1.00;1.00;;;22.20;57.20;;;;;;5116663;27;20772;-69
2022/12/25 06:11:10;;;;;;;0.93;0.87;;;22.20;57.20;;;;;;5113803;27;20539;-68
2022/12/25 06:13:39;;;;;;;1.17;1.10;;;22.20;57.30;;;;;;5122349;27;20536;-68
2022/12/25 06:16:09;;;;;;;2.20;1.20;;;22.20;57.20;;;;;;5118118;27;20615;-68
2022/12/25 06:18:39;;;;;;;1.50;1.10;;;22.20;57.20;;;;;;5124581;27;20448;-68
2022/12/25 06:21:08;;;;;;;1.10;1.00;;;22.20;57.30;;;;;;5116991;27;20467;-68
2022/12/25 06:23:38;;;;;;;0.90;0.90;;;22.10;57.30;;;;;;5119374;27;20512;-69
2022/12/25 06:26:09;;;;;;;0.80;0.80;;;22.10;57.30;;;;;;5115650;27;20450;-68
2022/12/25 06:28:37;;;;;;;1.00;1.00;;;22.10;57.30;;;;;;5124554;27;20436;-68
2022/12/25 06:31:07;;;;;;;0.97;0.97;;;22.10;57.30;;;;;;5108224;27;20469;-68
2022/12/25 06:33:36;;;;;;;1.10;1.00;;;22.10;57.40;;;;;;5107276;28;20481;-69
2022/12/25 06:36:06;;;;;;;0.80;0.80;;;22.10;57.40;;;;;;5121273;27;20786;-68
2022/12/25 06:38:34;;;;;;;1.37;1.30;;;22.10;57.40;;;;;;5110661;27;20471;-69
2022/12/25 06:41:09;;;;;;;1.13;1.10;;;22.10;57.40;;;;;;5118345;27;20557;-68
2022/12/25 06:43:38;;;;;;;1.20;1.17;;;22.10;57.50;;;;;;5115708;27;20793;-68
2022/12/25 06:46:09;;;;;;;1.07;1.00;;;22.10;57.50;;;;;;5111929;27;20904;-69
2022/12/25 06:48:38;;;;;;;1.07;1.03;;;22.10;57.50;;;;;;5116896;27;20461;-68
2022/12/25 06:51:07;;;;;;;1.27;1.20;;;22.10;57.40;;;;;;5126692;27;20475;-69
2022/12/25 06:53:36;;;;;;;0.83;0.83;;;22.10;57.40;;;;;;5105530;27;20516;-68
2022/12/25 06:56:14;;;;;;;1.10;1.00;;;22.10;57.40;;;;;;5114001;27;20998;-68
2022/12/25 06:58:43;;;;;;;0.83;0.83;;;22.10;57.40;;;;;;5115938;27;20453;-68
2022/12/25 07:01:16;;;;;;;1.00;1.00;;;22.10;57.30;;;;;;5114014;28;20444;-68
2022/12/25 07:03:46;;;;;;;1.10;1.03;;;22.10;57.30;;;;;;5115000;27;20443;-68
2022/12/25 07:06:15;;;;;;;1.47;1.37;;;22.20;57.30;;;;;;5113461;28;20439;-68
2022/12/25 07:08:43;;;;;;;1.57;1.10;;;22.20;57.20;;;;;;5116083;27;20480;-67
2022/12/25 07:11:12;;;;;;;0.93;0.93;;;22.20;57.20;;;;;;5113088;27;20452;-68
2022/12/25 07:13:40;;;;;;;1.00;0.90;;;22.20;57.20;;;;;;5103639;27;20444;-69
2022/12/25 07:16:10;;;;;;;1.07;0.97;;;22.20;57.20;;;;;;5106192;27;20507;-69
2022/12/25 07:18:39;;;;;;;0.93;0.90;;;22.20;57.10;;;;;;5112194;28;20450;-69
2022/12/25 07:21:08;;;;;;;1.10;0.97;;;22.20;57.10;;;;;;5112783;28;20519;-68
2022/12/25 07:23:37;;;;;;;0.70;0.70;;;22.20;57.10;;;;;;5114680;27;20477;-70
2022/12/25 07:26:05;;;;;;;0.93;0.90;;;22.20;57.10;;;;;;5112701;27;20449;-68
2022/12/25 07:28:35;;;;;;;1.30;0.83;;;22.20;57.10;;;;;;5109023;28;20449;-68
2022/12/25 07:31:04;;;;;;;0.83;0.83;;;22.20;57.10;;;;;;5113919;28;20535;-69
2022/12/25 07:33:33;;;;;;;0.80;0.80;;;22.20;57.10;;;;;;5119205;27;20527;-68
2022/12/25 07:36:02;;;;;;;0.80;0.80;;;22.20;57.10;;;;;;5113222;27;20595;-68
2022/12/25 07:38:31;;;;;;;1.43;0.87;;;22.20;57.10;;;;;;5109701;27;20858;-69
2022/12/25 07:40:59;;;;;;;2.27;1.43;;;22.10;57.10;;;;;;5118834;27;20849;-68
2022/12/25 07:43:27;;;;;;;1.97;1.00;;;22.10;57.10;;;;;;5130928;27;20531;-68
2022/12/25 07:45:57;;;;;;;1.20;1.10;;;22.10;57.10;;;;;;5124080;27;20437;-68
2022/12/25 07:48:26;;;;;;;1.00;0.93;;;22.10;57.10;;;;;;5119432;27;20546;-70
2022/12/25 07:50:57;;;;;;;1.30;1.27;;;22.10;57.20;;;;;;5104071;27;20447;-68
2022/12/25 07:53:25;;;;;;;1.17;1.10;;;22.10;57.20;;;;;;5105801;28;20771;-68
2022/12/25 07:55:57;;;;;;;1.37;1.27;;;22.10;57.20;;;;;;5111206;28;20468;-68
2022/12/25 07:58:25;;;;;;;0.90;0.90;;;22.10;57.20;;;;;;5107172;28;20472;-68
2022/12/25 08:00:54;;;;;;;1.00;1.00;;;22.10;57.20;;;;;;5111407;27;20447;-68
2022/12/25 08:03:23;;;;;;;0.90;0.90;;;22.10;57.20;;;;;;5110039;27;20456;-68
2022/12/25 08:05:52;;;;;;;1.70;1.20;;;22.20;57.20;;;;;;5106758;27;20461;-67
2022/12/25 08:08:20;;;;;;;1.43;1.37;;;22.20;57.40;;;;;;5122371;27;20495;-70
2022/12/25 08:10:48;;;;;;;1.00;1.00;;;22.20;57.60;;;;;;5103634;27;20461;-68
2022/12/25 08:13:16;;;;;;;1.50;1.40;;;22.20;57.80;;;;;;5107919;28;20863;-68
2022/12/25 08:15:44;;;;;;;1.27;1.17;;;22.20;57.90;;;;;;5106910;28;20470;-70
2022/12/25 08:18:12;;;;;;;1.20;1.17;;;22.20;58.10;;;;;;5085908;28;20453;-70
2022/12/25 08:20:42;;;;;;;2.13;1.33;;;22.20;58.20;;;;;;5096191;28;20463;-72
2022/12/25 08:23:10;;;;;;;1.83;1.70;;;22.20;58.20;;;;;;5100965;28;20469;-69
2022/12/25 08:25:38;;;;;;;1.57;1.47;;;22.20;58.20;;;;;;5104610;27;20457;-67
2022/12/25 08:28:06;;;;;;;1.40;1.30;;;22.30;58.20;;;;;;5099819;27;20464;-68
2022/12/25 08:30:34;;;;;;;1.97;1.60;;;22.30;58.10;;;;;;5100479;27;21763;-68
2022/12/25 08:33:02;;;;;;;1.20;1.20;;;22.30;58.10;;;;;;5085823;28;20811;-69
2022/12/25 08:35:33;;;;;;;1.90;1.80;;;22.30;58.20;;;;;;5093429;27;20556;-67
2022/12/25 08:38:02;;;;;;;1.93;1.83;;;22.30;58.20;;;;;;5107397;27;20454;-71
2022/12/25 08:40:31;;;;;;;1.90;1.80;;;22.30;58.20;;;;;;5112168;27;20494;-67
2022/12/25 08:42:59;;;;;;;1.30;1.20;;;22.30;58.20;;;;;;5106993;28;20452;-69
2022/12/25 08:45:28;;;;;;;2.10;1.60;;;22.30;58.10;;;;;;5110640;28;20440;-69
2022/12/25 08:48:02;;;;;;;1.80;1.60;;;22.30;58.20;;;;;;5102574;28;20477;-73
2022/12/25 08:50:30;;;;;;;1.43;1.30;;;22.30;58.10;;;;;;5097252;27;20448;-70
2022/12/25 08:52:58;;;;;;;1.60;1.50;;;22.30;58.10;;;;;;5103479;28;20591;-71
2022/12/25 08:55:27;;;;;;;1.80;1.70;;;22.30;58.00;;;;;;5106445;27;21302;-73
2022/12/25 08:57:55;;;;;;;1.30;1.20;;;22.30;58.00;;;;;;5110961;27;20998;-67
2022/12/25 09:00:23;;;;;;;1.60;1.50;;;22.30;58.00;;;;;;5105547;27;20448;-69
2022/12/25 09:02:52;;;;;;;1.70;1.60;;;22.30;58.00;;;;;;5105227;27;20485;-67
2022/12/25 09:05:21;;;;;;;1.23;1.13;;;22.30;58.00;;;;;;5101782;27;21376;-68
2022/12/25 09:07:49;;;;;;;1.60;1.50;;;22.30;58.00;;;;;;5108594;28;20507;-66
2022/12/25 09:10:17;;;;;;;1.80;1.70;;;22.30;58.00;;;;;;5104441;27;20452;-70
2022/12/25 09:12:47;;;;;;;1.50;1.40;;;22.30;58.00;;;;;;5093816;28;20439;-70
2022/12/25 09:15:15;;;;;;;1.63;1.53;;;22.40;58.00;;;;;;5101190;27;20453;-67
2022/12/25 09:17:43;;;;;;;1.23;1.13;;;22.40;58.00;;;;;;5107837;27;20469;-70
2022/12/25 09:20:11;;;;;;;1.67;1.57;;;22.40;58.00;;;;;;5107431;28;20447;-66
2022/12/25 09:22:39;;;;;;;1.80;1.70;;;22.40;58.00;;;;;;5090309;28;20540;-68
2022/12/25 09:25:08;;;;;;;1.80;1.70;;;22.40;58.00;;;;;;5104033;28;20772;-67
2022/12/25 09:27:36;;;;;;;1.40;1.30;;;22.40;58.00;;;;;;5093637;28;20448;-67
2022/12/25 09:30:07;;;;;;;1.60;1.50;;;22.40;57.90;;;;;;5096176;28;20488;-67
2022/12/25 09:32:35;;;;;;;2.23;1.50;;;22.50;58.00;;;;;;5108756;28;20492;-68
2022/12/25 09:35:04;;;;;;;1.37;1.37;;;22.50;57.90;;;;;;5107190;28;20464;-67
2022/12/25 09:37:32;;;;;;;1.50;1.40;;;22.50;57.90;;;;;;5110842;28;20469;-67
2022/12/25 09:40:00;;;;;;;1.47;1.30;;;22.50;57.90;;;;;;5106855;28;20461;-69
2022/12/25 09:42:31;;;;;;;2.30;1.10;;;22.50;57.90;;;;;;5113216;28;21342;-68
2022/12/25 09:45:03;;;;;;;1.33;1.23;;;22.60;57.90;;;;;;5102338;28;20905;-67
2022/12/25 09:47:35;;;;;;;1.70;1.13;;;22.60;57.80;;;;;;5109744;28;20465;-70
2022/12/25 09:50:12;;;;;;;1.90;1.60;;;22.60;57.80;;;;;;5096304;28;20576;-67
2022/12/25 09:52:46;;;;;;;1.37;1.30;;;22.60;57.70;;;;;;5102787;28;20448;-67
2022/12/25 09:55:17;;;;;;;3.40;1.50;;;22.60;57.70;;;;;;5096877;28;20857;-66
2022/12/25 09:57:52;;;;;;;1.60;1.50;;;22.60;57.70;;;;;;5101392;28;20472;-68
2022/12/25 10:00:22;;;;;;;1.63;1.30;;;22.60;57.60;;;;;;5095529;28;20453;-66
2022/12/25 10:03:10;;;;;;;1.40;1.40;;;22.70;57.60;;;;;;5097148;28;21114;-66
2022/12/25 10:05:52;;;;;;;1.60;1.50;;;22.70;57.70;;;;;;5105782;28;20450;-66
2022/12/25 10:08:32;;;;;;;1.50;1.40;;;22.70;57.60;;;;;;5095942;28;20506;-71
2022/12/25 10:11:10;;;;;;;1.73;1.63;;;22.70;57.60;;;;;;5104139;28;20464;-67
2022/12/25 10:13:56;;;;;;;1.43;1.40;;;22.70;57.50;;;;;;5114127;28;20450;-68
2022/12/25 10:16:33;;;;;;;1.70;1.60;;;22.80;57.60;;;;;;5103310;28;20480;-68
2022/12/25 10:19:26;;;;;;;1.30;1.30;;;22.80;57.70;;;;;;5108880;28;20490;-69
2022/12/25 10:21:58;;;;;;;1.70;1.60;;;22.80;57.60;;;;;;5108075;28;20466;-68
2022/12/25 10:24:33;;;;;;;1.67;1.57;;;22.80;57.60;;;;;;5113229;27;20494;-67
2022/12/25 10:27:04;;;;;;;1.67;1.57;;;22.90;57.70;;;;;;5117909;27;20450;-69
2022/12/25 10:29:35;;;;;;;1.63;1.53;;;22.90;57.50;;;;;;5099858;27;20476;-68
2022/12/25 10:32:03;;;;;;;1.50;1.40;;;23.00;57.40;;;;;;5117005;27;20860;-67
2022/12/25 10:34:34;;;;;;;1.67;1.57;;;23.00;57.30;;;;;;5110197;27;20453;-70
2022/12/25 10:37:03;;;;;;;1.50;1.40;;;23.10;57.30;;;;;;5115441;27;20468;-70
2022/12/25 10:39:31;;;;;;;1.70;1.60;;;23.10;57.10;;;;;;5105146;27;20443;-71
2022/12/25 10:42:19;;;;;;;1.27;1.23;;;23.20;57.00;;;;;;5104152;27;21074;-69
2022/12/25 10:45:00;;;;;;;1.10;1.10;;;23.30;57.00;;;;;;5112998;27;20559;-71
2022/12/25 10:47:31;;;;;;;1.30;1.30;;;23.30;56.70;;;;;;5108946;27;20459;-68
2022/12/25 10:50:07;;;;;;;1.60;1.50;;;23.40;56.60;;;;;;5109134;27;20506;-67
2022/12/25 10:52:51;;;;;;;1.13;1.03;;;23.40;56.60;;;;;;5105521;27;20442;-68
2022/12/25 10:55:19;;;;;;;1.30;1.20;;;23.50;56.40;;;;;;5106343;27;20463;-68
2022/12/25 10:57:54;;;;;;;1.80;1.70;;;23.50;56.60;;;;;;5109937;27;20786;-68
2022/12/25 11:00:24;;;;;;;1.50;1.40;;;23.50;56.50;;;;;;5112729;27;20491;-68
2022/12/25 11:02:52;;;;;;;1.80;1.40;;;23.50;56.60;;;;;;5111359;27;20441;-68
2022/12/25 11:05:27;;;;;;;1.57;1.47;;;23.50;56.50;;;;;;5101456;27;20521;-71
2022/12/25 11:07:58;;;;;;;2.10;2.00;;;23.50;56.50;;;;;;5091511;27;20479;-67
2022/12/25 11:10:30;;;;;;;1.17;1.07;;;23.50;56.30;;;;;;5077025;28;20477;-74
2022/12/25 11:13:07;;;;;;;1.30;1.30;;;23.60;56.20;;;;;;5081020;28;20460;-69
2022/12/25 11:15:38;;;;;;;1.30;1.30;;;23.60;56.10;;;;;;5081156;28;20976;-73
2022/12/25 11:18:19;;;;;;;1.40;1.30;;;23.60;56.30;;;;;;5100403;28;20569;-67
2022/12/25 11:20:51;;;;;;;2.13;1.43;;;23.60;56.20;;;;;;5096225;28;20440;-73
2022/12/25 11:23:21;;;;;;;1.17;1.10;;;23.60;56.10;;;;;;5077487;28;20462;-70
2022/12/25 11:25:56;;;;;;;1.67;1.57;;;23.60;56.00;;;;;;5076046;28;20459;-75
2022/12/25 11:28:25;;;;;;;1.40;1.30;;;23.60;56.10;;;;;;5074522;28;20719;-73
2022/12/25 11:30:59;;;;;;;1.50;1.40;;;23.60;56.10;;;;;;5075660;28;21035;-66
2022/12/25 11:33:32;;;;;;;1.57;1.50;;;23.60;56.20;;;;;;5075002;28;20461;-73
2022/12/25 11:36:08;;;;;;;1.77;1.63;;;23.60;56.20;;;;;;5081290;28;21215;-72
2022/12/25 11:38:36;;;;;;;1.63;1.53;;;23.60;56.30;;;;;;5081480;28;21059;-67
2022/12/25 11:41:06;;;;;;;1.53;1.43;;;23.50;56.40;;;;;;5080990;28;20516;-67
2022/12/25 11:43:39;;;;;;;1.60;1.50;;;23.50;56.70;;;;;;5082817;28;20563;-66
2022/12/25 11:46:13;;;;;;;1.60;1.50;;;23.50;56.40;;;;;;5078309;28;20449;-73
2022/12/25 11:48:45;;;;;;;1.30;1.20;;;23.60;56.30;;;;;;5079112;28;20467;-69
2022/12/25 11:51:16;;;;;;;1.60;1.50;;;23.70;56.20;;;;;;5075683;28;20456;-66
2022/12/25 11:53:48;;;;;;;1.23;1.13;;;23.70;56.50;;;;;;5081837;28;20461;-66
2022/12/25 11:56:19;;;;;;;1.27;1.27;;;23.70;56.50;;;;;;5084832;28;20549;-71
2022/12/25 11:58:50;;;;;;;2.50;2.20;;;23.70;56.40;;;;;;5077989;28;20594;-72
2022/12/25 12:01:27;;;;;;;1.57;1.47;;;23.80;56.40;;;;;;5084222;28;20992;-71
2022/12/25 12:03:56;;;;;;;1.27;1.20;;;23.80;56.40;;;;;;5080821;28;20450;-68
2022/12/25 12:06:30;;;;;;;1.20;1.10;;;23.90;56.20;;;;;;5084665;28;20523;-70
2022/12/25 12:09:11;;;;;;;2.53;1.70;;;24.00;56.20;;;;;;5101001;28;20854;-68
2022/12/25 12:11:46;;;;;;;1.20;1.17;;;24.10;55.90;;;;;;5104704;28;21365;-66
2022/12/25 12:14:31;;;;;;;1.33;1.23;;;24.30;55.60;;;;;;5106528;28;20557;-64
2022/12/25 12:17:00;;;;;;;1.23;1.17;;;24.40;55.30;;;;;;5105989;28;20547;-65
2022/12/25 12:19:30;;;;;;;1.20;1.07;;;24.50;55.10;;;;;;5109736;27;20475;-72
2022/12/25 12:22:02;;;;;;;1.27;1.27;;;24.60;54.90;;;;;;5104875;27;20434;-64
2022/12/25 12:24:35;;;;;;;1.30;1.20;;;24.70;54.80;;;;;;5112781;28;20544;-67
2022/12/25 12:27:07;;;;;;;1.60;1.50;;;24.70;54.60;;;;;;5107847;28;20934;-64
2022/12/25 12:29:40;;;;;;;1.10;1.10;;;24.80;54.40;;;;;;5109447;27;20470;-66
2022/12/25 12:32:28;;;;;;;1.33;1.23;;;24.80;54.30;;;;;;5101711;28;20529;-76
2022/12/25 12:34:57;;;;;;;1.30;1.20;;;24.80;54.20;;;;;;5102176;27;20447;-69
2022/12/25 12:37:30;;;;;;;1.10;1.10;;;24.80;54.20;;;;;;5100564;28;20497;-67
2022/12/25 12:39:59;;;;;;;1.50;1.37;;;24.80;54.30;;;;;;5100710;28;20485;-67
2022/12/25 12:42:31;;;;;;;1.37;1.30;;;24.90;54.30;;;;;;5103328;28;20810;-67
2022/12/25 12:45:10;;;;;;;1.30;1.20;;;24.90;54.20;;;;;;5100845;27;20494;-67
2022/12/25 12:47:41;;;;;;;1.40;1.30;;;25.00;54.20;;;;;;5098251;28;20463;-71
2022/12/25 12:50:28;;;;;;;1.33;1.23;;;25.00;54.00;;;;;;5095348;27;20454;-69
2022/12/25 12:52:58;;;;;;;1.20;1.20;;;25.00;54.00;;;;;;5095808;28;20458;-67
2022/12/25 12:55:30;;;;;;;1.20;1.10;;;25.00;54.10;;;;;;5097109;28;20462;-68
2022/12/25 12:58:00;;;;;;;1.67;1.57;;;25.00;54.10;;;;;;5097926;27;20474;-72
2022/12/25 13:00:37;;;;;;;1.20;1.20;;;25.00;54.00;;;;;;5094274;27;21936;-68
2022/12/25 13:03:23;;;;;;;1.10;1.10;;;25.10;54.00;;;;;;5093941;27;20456;-72
2022/12/25 13:05:56;;;;;;;2.23;2.13;;;25.10;54.00;;;;;;5087071;28;20547;-70
2022/12/25 13:08:42;;;;;;;1.30;1.20;;;25.10;53.90;;;;;;5074386;28;21479;-70
2022/12/25 13:11:21;;;;;;;1.40;1.30;;;25.10;53.90;;;;;;5093354;28;20449;-69
2022/12/25 13:13:51;;;;;;;1.60;1.30;;;25.20;53.90;;;;;;5098316;28;20594;-65
2022/12/25 13:16:24;;;;;;;1.40;1.30;;;25.20;53.90;;;;;;5096758;28;20458;-71
2022/12/25 13:18:55;;;;;;;1.03;1.03;;;25.20;53.70;;;;;;5095617;28;20476;-64
2022/12/25 13:21:25;;;;;;;1.10;1.10;;;25.30;53.70;;;;;;5090327;28;20456;-70
2022/12/25 13:24:00;;;;;;;1.27;1.10;;;25.30;53.60;;;;;;5097210;28;21045;-66
2022/12/25 13:26:29;;;;;;;1.40;1.30;;;25.30;53.60;;;;;;5096541;28;20551;-64
2022/12/25 13:28:57;;;;;;;1.40;1.30;;;25.40;53.60;;;;;;5099564;28;20452;-65
2022/12/25 13:31:27;;;;;;;1.50;1.40;;;25.40;53.60;;;;;;5112902;28;20469;-65
2022/12/25 13:33:58;;;;;;;1.37;1.20;;;25.40;53.60;;;;;;5111570;28;20459;-66
2022/12/25 13:36:28;;;;;;;1.57;1.47;;;25.40;53.50;;;;;;5102475;28;20447;-66
2022/12/25 13:38:59;;;;;;;1.60;1.50;;;25.40;53.60;;;;;;5103330;28;20466;-70
2022/12/25 13:44:22;;;;;;;1.30;1.20;;;25.30;53.60;;;;;;5104709;28;21094;-67
2022/12/25 13:46:51;;;;;;;1.80;1.40;;;25.30;53.70;;;;;;5113560;28;20966;-70
2022/12/25 13:49:21;;;;;;;1.40;1.30;;;25.20;53.70;;;;;;5099970;28;20460;-69
2022/12/25 13:51:50;;;;;;;1.20;1.20;;;25.20;53.90;;;;;;5100275;28;20468;-67
2022/12/25 13:54:20;;;;;;;1.30;1.20;;;25.10;53.90;;;;;;5095804;28;20922;-66
2022/12/25 13:56:50;;;;;;;1.00;1.00;;;25.10;54.00;;;;;;5100369;28;20510;-66
2022/12/25 13:59:20;;;;;;;1.30;1.20;;;25.00;54.10;;;;;;5099486;28;20471;-71
2022/12/25 14:01:50;;;;;;;1.27;1.27;;;25.00;54.30;;;;;;5087843;28;20985;-70
2022/12/25 14:04:21;;;;;;;1.40;1.23;;;25.00;54.40;;;;;;5102362;27;20546;-66
2022/12/25 14:06:50;;;;;;;1.30;1.23;;;25.00;54.40;;;;;;5097385;27;20514;-71
2022/12/25 14:09:20;;;;;;;1.23;1.23;;;24.90;54.50;;;;;;5082574;28;20948;-70
2022/12/25 14:11:51;;;;;;;0.97;0.97;;;24.90;54.50;;;;;;5088587;28;20543;-69
2022/12/25 14:14:22;;;;;;;1.30;1.23;;;24.90;54.50;;;;;;5083323;28;21077;-72
2022/12/25 14:16:53;;;;;;;1.47;1.37;;;24.90;54.50;;;;;;5068408;28;20552;-73
2022/12/25 14:19:32;;;;;;;1.47;1.40;;;24.90;54.50;;;;;;5076752;28;20539;-71
2022/12/25 14:22:04;;;;;;;1.80;1.40;;;24.90;54.60;;;;;;5072900;28;20467;-75
2022/12/25 14:24:34;;;;;;;1.30;1.20;;;24.90;54.60;;;;;;5075070;28;20703;-69
2022/12/25 14:27:05;;;;;;;1.23;1.13;;;24.80;54.70;;;;;;5082810;28;20442;-70
2022/12/25 14:29:39;;;;;;;1.10;1.00;;;24.80;54.70;;;;;;5089152;28;20546;-68
2022/12/25 14:32:12;;;;;;;1.83;1.40;;;24.70;54.80;;;;;;5084372;28;20951;-67
2022/12/25 14:34:44;;;;;;;1.27;1.23;;;24.70;54.80;;;;;;5073535;28;20453;-74
2022/12/25 14:37:17;;;;;;;1.37;1.27;;;24.70;54.90;;;;;;5075853;28;20545;-72
2022/12/25 14:39:55;;;;;;;1.13;1.13;;;24.60;55.10;;;;;;5074429;28;20487;-71
2022/12/25 14:42:26;;;;;;;1.10;1.10;;;24.60;55.20;;;;;;5082897;28;20467;-68
2022/12/25 14:45:05;;;;;;;1.30;1.10;;;24.50;55.30;;;;;;5080115;28;20549;-71
2022/12/25 14:47:49;;;;;;;0.90;0.90;;;24.50;55.40;;;;;;5074952;28;20472;-71
2022/12/25 14:50:26;;;;;;;1.20;1.10;;;24.40;55.50;;;;;;5078824;28;20546;-68
2022/12/25 14:52:55;;;;;;;0.90;0.90;;;24.40;55.70;;;;;;5078832;28;20475;-68
2022/12/25 14:55:27;;;;;;;1.23;1.17;;;24.40;55.60;;;;;;5083008;28;20927;-72